Jamestown, Texas
Current Conditions -  °F | °C
As of 6:15 PM on Friday 21 Nov 2014 (Local Time) from KJAS Reporting Station
Light Rain Light Rain  
Wind Chill: 62°   Ceiling: 7500
Heat Index: 62°   Visibility: 10mi
Dew Point: 54°   Wind: 5mph
Humidity: 73%   Direction: 120°ESE
Pressure: 30.2"   Gusts: NA
Location:  31.0751°N, 93.8073°W
Report Text: KJAS 220015Z AUTO 12004KT 10SM -RA BKN075 OVC090 17/12 A3020 RMK AO2 T01690121
Loading
Personal Weather Stations






























Interactive Weather Map New forecast layout! Learn more

10-Day Weather Forecast

Advertisements
Track Severe Weather on mobile